Terminal Aerodrome Forecast
Issued by NWS

Home | Current Version | Previous Version | Graphics & Text | Print | Product List | Glossary On
Versions: 1 2 3 4 5 6 7 8 9 10 11 12 13 14 15 16 17 18 19 20 21 22 23 24
000
FTUS43 KABR 261559 AAB
TAFPIR
TAF AMD
KPIR 261559Z 2616/2712 26013KT P6SM FEW040 SCT080
     FM262000 14012KT P6SM VCTS SCT250CB
     FM262300 09010KT P6SM -SHRA VCTS BKN090CB
     FM270300 04012KT P6SM SHRA VCTS BKN090CB
     FM270500 08008KT P6SM BKN200
     FM271000 03004KT P6SM BKN080=

USA.gov is the U.S. government's official web portal to all federal, state and local government web resources and services.